Time;durP1;ratioP1;P1;durP2;ratioP2;P2;SDS_P1;SDS_P2;PMS_P1;PMS_P2;Temp;Humidity;BMP_temperature;BMP_pressure;BME280_temperature;BME280_humidity;BME280_pressure;Samples;Min_cycle;Max_cycle;Signal;HPM_P1;HPM_P2
2020/12/10 00:00:57;;;;;;;22.00;19.70;;;;;;;5.19;63.33;97090.66;8282935;28;20230;-81
2020/12/10 00:04:59;;;;;;;22.17;19.87;;;;;;;5.31;63.07;97096.22;8240484;28;20330;-79
2020/12/10 00:09:01;;;;;;;23.00;20.17;;;;;;;5.31;63.50;97088.53;8226219;28;20242;-78
2020/12/10 00:13:03;;;;;;;23.37;20.80;;;;;;;5.23;63.25;97096.50;8248073;28;20228;-79
2020/12/10 00:17:05;;;;;;;21.67;19.47;;;;;;;5.33;63.22;97102.13;8253218;28;20202;-79
2020/12/10 00:21:08;;;;;;;26.23;21.37;;;;;;;5.33;63.06;97099.56;8252766;28;20226;-80
2020/12/10 00:25:10;;;;;;;23.30;20.87;;;;;;;5.38;63.27;97105.38;8252169;28;20202;-80
2020/12/10 00:29:12;;;;;;;22.60;20.23;;;;;;;5.42;63.16;97099.22;8269982;28;20564;-80
2020/12/10 00:33:15;;;;;;;25.97;21.23;;;;;;;5.45;63.15;97099.94;8318425;28;20220;-80
2020/12/10 00:37:17;;;;;;;24.77;21.83;;;;;;;5.43;63.23;97099.19;8299712;28;20214;-80
2020/12/10 00:41:19;;;;;;;26.17;23.40;;;;;;;5.41;63.03;97103.53;8310478;28;20228;-79
2020/12/10 00:45:20;;;;;;;25.97;23.00;;;;;;;5.45;62.79;97096.56;8301588;28;20197;-79
2020/12/10 00:49:23;;;;;;;26.57;23.63;;;;;;;5.44;62.86;97098.28;8298499;28;20201;-79
2020/12/10 00:53:25;;;;;;;29.40;26.00;;;;;;;5.44;63.07;97100.00;8302333;28;20210;-79
2020/12/10 00:57:27;;;;;;;30.47;25.93;;;;;;;5.39;62.98;97101.94;8293009;28;20197;-79
2020/12/10 01:01:29;;;;;;;29.83;25.30;;;;;;;5.40;63.19;97098.44;8290586;28;20217;-79
2020/12/10 01:05:32;;;;;;;28.13;25.07;;;;;;;5.41;63.14;97093.25;8295657;28;20242;-79
2020/12/10 01:09:34;;;;;;;29.57;25.17;;;;;;;5.38;63.31;97092.53;8273140;28;20230;-79
2020/12/10 01:13:36;;;;;;;30.67;27.03;;;;;;;5.37;63.16;97098.56;8271796;28;20212;-79
2020/12/10 01:17:41;;;;;;;31.60;27.10;;;;;;;5.33;63.09;97100.44;8252994;28;20217;-78
2020/12/10 01:21:44;;;;;;;34.67;28.13;;;;;;;5.40;63.32;97093.31;8275193;28;20229;-80
2020/12/10 01:25:46;;;;;;;31.10;27.23;;;;;;;5.42;63.13;97105.19;8284187;28;20202;-80
2020/12/10 01:29:48;;;;;;;34.57;29.10;;;;;;;5.43;63.07;97108.63;8283794;28;20216;-80
2020/12/10 01:33:51;;;;;;;32.43;27.63;;;;;;;5.36;63.25;97097.72;8282800;28;20228;-80
2020/12/10 01:37:53;;;;;;;35.33;28.93;;;;;;;5.43;63.15;97098.34;8281167;28;20228;-79
2020/12/10 01:41:55;;;;;;;36.83;30.23;;;;;;;5.43;63.15;97091.47;8280553;28;20229;-80
2020/12/10 01:45:57;;;;;;;36.97;31.00;;;;;;;5.41;63.05;97092.44;8284941;28;20289;-79
2020/12/10 01:49:59;;;;;;;35.67;29.87;;;;;;;5.40;63.21;97085.63;8286817;28;20213;-81
2020/12/10 01:54:03;;;;;;;38.37;31.23;;;;;;;5.40;63.14;97083.88;8288427;28;20213;-81
2020/12/10 01:58:05;;;;;;;37.53;30.30;;;;;;;5.42;63.30;97087.22;8290310;28;20214;-80
2020/12/10 02:02:08;;;;;;;35.17;30.20;;;;;;;5.37;63.03;97073.75;8283544;28;20229;-80
2020/12/10 02:06:10;;;;;;;37.10;29.57;;;;;;;5.40;63.47;97083.88;8270478;28;20260;-78
2020/12/10 02:10:13;;;;;;;39.50;32.30;;;;;;;5.36;63.59;97073.78;8271636;28;20217;-78
2020/12/10 02:14:15;;;;;;;37.97;29.90;;;;;;;5.28;63.46;97063.81;8268841;28;20210;-80
2020/12/10 02:18:17;;;;;;;37.37;30.90;;;;;;;5.35;63.63;97057.56;8279944;28;20217;-80
2020/12/10 02:22:19;;;;;;;35.77;30.00;;;;;;;5.32;63.92;97049.97;8280031;28;20225;-80
2020/12/10 02:26:23;;;;;;;36.97;29.07;;;;;;;5.33;63.41;97046.50;8281029;28;20221;-80
2020/12/10 02:30:25;;;;;;;37.03;30.47;;;;;;;5.23;63.84;97038.28;8280332;28;20206;-80
2020/12/10 02:34:27;;;;;;;37.63;29.73;;;;;;;5.30;63.95;97031.22;8279641;28;20205;-80
2020/12/10 02:38:29;;;;;;;37.23;31.20;;;;;;;5.31;63.77;97027.72;8279515;28;20224;-80
2020/12/10 02:42:32;;;;;;;36.87;30.50;;;;;;;5.32;63.55;97032.00;8278707;28;20237;-80
2020/12/10 02:46:34;;;;;;;35.23;29.53;;;;;;;5.23;63.82;97022.06;8284095;28;20202;-80
2020/12/10 02:50:36;;;;;;;34.97;29.97;;;;;;;5.15;63.94;97026.66;8285794;28;20288;-80
2020/12/10 02:54:38;;;;;;;33.97;29.30;;;;;;;5.28;63.84;97017.59;8286000;28;20576;-80
2020/12/10 02:58:41;;;;;;;33.50;29.13;;;;;;;5.26;63.85;97009.94;8286412;28;20213;-80
2020/12/10 03:02:43;;;;;;;33.13;28.30;;;;;;;5.22;63.78;97010.97;8287204;28;20221;-79
2020/12/10 03:06:45;;;;;;;32.87;28.90;;;;;;;5.37;63.52;97009.53;8263103;28;20259;-80
2020/12/10 03:10:48;;;;;;;32.20;28.10;;;;;;;5.39;63.27;97006.94;8287709;28;20201;-80
2020/12/10 03:14:51;;;;;;;31.87;26.70;;;;;;;5.29;63.81;96997.00;8289136;28;20209;-80
2020/12/10 03:18:53;;;;;;;31.37;27.50;;;;;;;5.28;63.73;96997.88;8289205;28;20616;-80
2020/12/10 03:22:55;;;;;;;32.70;28.07;;;;;;;5.40;63.52;97011.16;8290786;28;20225;-79
2020/12/10 03:26:57;;;;;;;31.53;27.43;;;;;;;5.39;63.68;97006.94;8289618;28;20205;-80
2020/12/10 03:30:59;;;;;;;33.17;28.97;;;;;;;5.42;63.55;96999.09;8287369;28;20202;-80
2020/12/10 03:35:02;;;;;;;32.53;29.03;;;;;;;5.41;63.31;97007.69;8282746;28;20261;-79
2020/12/10 03:39:03;;;;;;;31.13;27.10;;;;;;;5.48;63.19;96994.56;8270601;28;20217;-79
2020/12/10 03:43:05;;;;;;;31.03;27.63;;;;;;;5.48;63.18;96980.88;8282486;28;20225;-80
2020/12/10 03:47:08;;;;;;;32.37;28.47;;;;;;;5.46;63.29;96980.09;8288562;28;20213;-80
2020/12/10 03:51:10;;;;;;;32.77;28.20;;;;;;;5.41;63.71;96979.47;8286742;28;20213;-81
2020/12/10 03:55:12;;;;;;;33.90;28.83;;;;;;;5.47;63.36;96972.34;8287309;28;20214;-80
2020/12/10 03:59:13;;;;;;;35.63;29.53;;;;;;;5.43;63.61;96972.53;8283664;28;20209;-80
2020/12/10 04:03:16;;;;;;;40.93;31.67;;;;;;;5.48;63.37;96960.31;8294242;28;20704;-80
2020/12/10 04:07:18;;;;;;;36.93;29.07;;;;;;;5.45;63.35;96955.31;8303985;28;20253;-80
2020/12/10 04:11:21;;;;;;;45.20;33.93;;;;;;;5.37;63.67;96955.63;8324251;28;20197;-80
2020/12/10 04:15:23;;;;;;;47.03;35.30;;;;;;;5.44;63.45;96957.03;8321195;28;20209;-80
2020/12/10 04:19:26;;;;;;;47.33;35.63;;;;;;;5.41;63.80;96948.66;8319983;28;20209;-80
2020/12/10 04:23:28;;;;;;;52.57;36.57;;;;;;;5.37;63.78;96941.94;8317588;28;20596;-80
2020/12/10 04:27:30;;;;;;;50.87;36.00;;;;;;;5.44;63.68;96946.75;8318111;28;20520;-80
2020/12/10 04:31:36;;;;;;;53.23;36.43;;;;;;;5.44;63.72;96958.78;8317065;28;20208;-80
2020/12/10 04:35:39;;;;;;;63.57;38.57;;;;;;;5.47;63.60;96956.91;8318213;28;20625;-80
2020/12/10 04:39:41;;;;;;;57.57;38.67;;;;;;;5.41;64.15;96953.78;8319010;28;20214;-81
2020/12/10 04:43:42;;;;;;;62.97;39.20;;;;;;;5.33;64.33;96938.69;8318762;28;20238;-80
2020/12/10 04:47:44;;;;;;;60.60;40.43;;;;;;;5.33;64.61;96950.66;8319805;28;20201;-80
2020/12/10 04:51:47;;;;;;;64.20;40.57;;;;;;;5.40;64.41;96973.47;8313610;28;20212;-79
2020/12/10 04:55:50;;;;;;;63.00;39.03;;;;;;;5.38;64.32;96959.84;8313090;28;20258;-80
2020/12/10 04:59:55;;;;;;;73.57;40.57;;;;;;;5.33;64.84;96953.22;8313927;28;20186;-79
2020/12/10 05:03:57;;;;;;;71.03;39.83;;;;;;;5.42;64.46;96969.09;8291829;28;20233;-79
2020/12/10 05:08:01;;;;;;;79.90;41.97;;;;;;;5.40;64.65;96962.38;8275421;28;20237;-79
2020/12/10 05:12:03;;;;;;;66.37;42.33;;;;;;;5.40;64.56;96957.22;8273478;28;20318;-77
2020/12/10 05:16:20;;;;;;;62.23;39.80;;;;;;;5.40;64.61;96963.19;8265646;28;20209;-78
2020/12/10 05:20:22;;;;;;;66.90;40.00;;;;;;;5.36;64.77;96959.06;8280812;28;20225;-78
2020/12/10 05:24:25;;;;;;;76.10;43.67;;;;;;;5.33;64.92;96954.09;8269140;28;20300;-79
2020/12/10 05:28:27;;;;;;;74.63;41.97;;;;;;;5.34;64.78;96954.91;8279723;28;20208;-79
2020/12/10 05:32:30;;;;;;;65.37;41.57;;;;;;;5.48;64.44;96953.47;8279314;28;20229;-79
2020/12/10 05:36:33;;;;;;;76.03;42.23;;;;;;;5.38;64.78;96949.59;8286037;28;20236;-77
2020/12/10 05:40:35;;;;;;;64.83;39.77;;;;;;;5.40;64.58;96957.22;8299336;28;20220;-77
2020/12/10 05:44:37;;;;;;;63.63;39.70;;;;;;;5.38;64.87;96961.59;8299545;28;20197;-77
2020/12/10 05:48:39;;;;;;;69.07;42.77;;;;;;;5.28;64.94;96964.50;8299868;28;20220;-78
2020/12/10 05:52:44;;;;;;;60.73;40.10;;;;;;;5.04;65.70;96965.47;8300549;28;20295;-78
2020/12/10 05:56:55;;;;;;;65.73;42.43;;;;;;;5.21;64.79;96967.38;8300116;28;20185;-77
2020/12/10 06:00:56;;;;;;;62.07;39.03;;;;;;;5.38;64.66;96964.16;8301201;28;20236;-78
2020/12/10 06:04:58;;;;;;;73.73;42.63;;;;;;;5.21;64.57;96970.78;8298571;28;20278;-77
2020/12/10 06:09:02;;;;;;;64.57;41.00;;;;;;;5.40;64.49;96965.75;8299715;28;20232;-77
2020/12/10 06:13:05;;;;;;;65.10;40.47;;;;;;;5.43;64.34;96967.38;8302331;28;20212;-77
2020/12/10 06:17:08;;;;;;;69.57;42.13;;;;;;;5.35;64.38;96961.69;8300723;28;20208;-77
2020/12/10 06:21:31;;;;;;;61.47;40.47;;;;;;;5.47;64.29;96963.81;8303627;28;20225;-77
2020/12/10 06:25:33;;;;;;;68.17;42.63;;;;;;;5.38;64.38;96967.56;8307365;28;20511;-77
2020/12/10 06:29:35;;;;;;;74.70;44.10;;;;;;;5.33;64.50;96973.75;8306284;28;20207;-77
2020/12/10 06:33:38;;;;;;;69.40;43.00;;;;;;;5.42;64.25;96970.84;8305781;28;20229;-78
2020/12/10 06:37:47;;;;;;;67.70;42.67;;;;;;;5.39;64.60;96963.28;8305105;28;20220;-78
2020/12/10 06:41:58;;;;;;;76.23;45.43;;;;;;;5.33;64.39;96986.59;8304472;28;20232;-78
2020/12/10 06:46:00;;;;;;;86.80;43.73;;;;;;;5.35;64.78;96984.81;8304451;28;20198;-77
2020/12/10 06:50:20;;;;;;;81.70;44.70;;;;;;;5.31;64.54;96988.41;8304596;28;20201;-77
2020/12/10 06:54:22;;;;;;;82.03;43.53;;;;;;;5.32;64.56;96985.78;8304182;28;20228;-77
2020/12/10 06:58:46;;;;;;;76.33;43.43;;;;;;;5.32;64.76;96988.34;8304601;28;20209;-77
2020/12/10 07:03:07;;;;;;;73.80;42.93;;;;;;;5.38;64.64;96979.56;8297796;28;20566;-78
2020/12/10 07:07:13;;;;;;;37.13;20.03;;;;;;;6.97;86.59;96978.91;8272655;28;20252;-78
2020/12/10 07:11:29;;;;;;;56.70;35.80;;;;;;;8.97;67.11;96975.03;8272435;28;20206;-79
2020/12/10 07:15:32;;;;;;;55.30;36.40;;;;;;;9.61;58.16;96966.41;8274961;28;20281;-78
2020/12/10 07:19:34;;;;;;;62.00;39.30;;;;;;;9.57;55.75;96963.16;8294314;28;20565;-79
2020/12/10 07:23:36;;;;;;;51.83;36.10;;;;;;;9.08;56.75;96966.72;8306189;28;20229;-79
2020/12/10 07:27:38;;;;;;;83.33;41.00;;;;;;;7.57;57.53;96973.50;8303517;28;20202;-78
2020/12/10 07:31:41;;;;;;;84.33;41.90;;;;;;;6.98;59.74;96972.81;8299742;28;20217;-77
2020/12/10 07:35:44;;;;;;;76.27;42.73;;;;;;;6.68;61.01;96975.03;8303378;28;20208;-77
2020/12/10 07:39:46;;;;;;;81.20;43.10;;;;;;;6.41;61.53;96962.50;8303434;28;20201;-78
2020/12/10 07:43:49;;;;;;;81.23;42.83;;;;;;;6.16;62.04;96967.84;8302404;28;20229;-76
2020/12/10 07:47:55;;;;;;;104.07;43.57;;;;;;;6.05;62.38;96964.03;8302722;28;20209;-77
2020/12/10 07:52:03;;;;;;;74.47;42.27;;;;;;;6.03;62.91;96963.22;8290950;28;20698;-76
2020/12/10 07:56:09;;;;;;;80.47;43.30;;;;;;;5.95;63.37;96973.00;8270099;28;20668;-77
2020/12/10 08:00:16;;;;;;;80.37;41.73;;;;;;;5.79;64.00;96974.50;8269280;28;20190;-77
2020/12/10 08:04:19;;;;;;;90.87;41.93;;;;;;;5.75;63.81;96978.94;8269850;28;20233;-77
2020/12/10 08:08:32;;;;;;;101.50;43.57;;;;;;;5.66;63.77;96977.56;8271071;28;20240;-79
2020/12/10 08:12:34;;;;;;;84.37;41.67;;;;;;;5.65;64.57;96981.06;8281420;28;20252;-79
2020/12/10 08:16:40;;;;;;;122.93;42.63;;;;;;;5.64;63.88;96981.94;8281068;28;20205;-79
2020/12/10 08:20:43;;;;;;;88.10;43.27;;;;;;;5.64;64.65;96987.06;8270844;28;20614;-77
2020/12/10 08:24:47;;;;;;;87.80;43.40;;;;;;;5.60;64.69;96977.00;8271031;28;20576;-78
2020/12/10 08:28:53;;;;;;;87.17;42.37;;;;;;;5.62;64.32;96978.59;8276063;28;20275;-78
2020/12/10 08:32:56;;;;;;;80.60;42.40;;;;;;;5.70;64.62;96975.72;8268914;28;20237;-78
2020/12/10 08:37:06;;;;;;;95.30;43.10;;;;;;;5.58;64.70;96977.03;8271947;28;20657;-77
2020/12/10 08:41:09;;;;;;;105.13;44.10;;;;;;;5.59;65.09;96973.56;8271359;28;20222;-77
2020/12/10 08:45:11;;;;;;;94.90;43.60;;;;;;;5.67;64.85;96971.53;8269037;28;20210;-78
2020/12/10 08:49:17;;;;;;;85.87;44.60;;;;;;;5.66;64.70;96967.28;8270561;28;20232;-77
2020/12/10 08:53:19;;;;;;;76.63;41.10;;;;;;;5.58;65.33;96965.91;8268313;28;20213;-77
2020/12/10 08:57:22;;;;;;;107.93;41.83;;;;;;;5.46;65.39;96969.81;8268491;28;20206;-78
2020/12/10 09:01:23;;;;;;;108.73;44.23;;;;;;;5.56;65.24;96973.72;8267928;28;20265;-77
2020/12/10 09:05:25;;;;;;;79.63;47.00;;;;;;;5.73;64.73;96974.75;8262299;28;20886;-78
2020/12/10 09:09:27;;;;;;;87.30;46.90;;;;;;;5.76;64.50;96965.19;8269518;28;20434;-77
2020/12/10 09:13:31;;;;;;;73.80;43.80;;;;;;;5.67;64.96;96974.13;8270765;28;20210;-77
2020/12/10 09:17:32;;;;;;;75.50;41.60;;;;;;;5.68;64.78;96982.66;8271041;28;20209;-77
2020/12/10 09:21:35;;;;;;;83.95;40.40;;;;;;;5.70;64.72;96972.31;8267829;28;20384;-77
2020/12/10 09:25:37;;;;;;;127.33;42.30;;;;;;;5.59;64.54;96981.28;8287344;28;20228;-77
2020/12/10 09:29:39;;;;;;;76.80;42.07;;;;;;;5.62;65.09;96973.47;8284868;28;20197;-78
2020/12/10 09:33:41;;;;;;;66.97;39.80;;;;;;;5.55;65.61;96978.91;8291244;28;20224;-78
2020/12/10 09:37:43;;;;;;;70.57;39.37;;;;;;;5.62;64.93;96981.16;8280525;28;20198;-78
2020/12/10 09:41:45;;;;;;;74.63;40.30;;;;;;;5.65;65.04;96988.75;8268558;28;20264;-78
2020/12/10 09:45:53;;;;;;;62.87;36.37;;;;;;;5.75;64.47;96973.81;8266556;28;20202;-78
2020/12/10 09:49:55;;;;;;;81.37;39.73;;;;;;;5.59;64.88;96975.31;8268034;28;20704;-78
2020/12/10 09:54:03;;;;;;;61.50;37.80;;;;;;;5.72;64.88;96971.34;8267628;28;20660;-78
2020/12/10 09:58:05;;;;;;;79.13;40.90;;;;;;;5.55;64.84;96968.63;8273953;28;20192;-77
2020/12/10 10:02:07;;;;;;;85.10;37.93;;;;;;;5.62;64.78;96962.34;8273473;28;20222;-78
2020/12/10 10:06:11;;;;;;;65.80;38.13;;;;;;;5.65;64.29;96959.66;8268991;28;20580;-78
2020/12/10 10:10:12;;;;;;;64.67;39.47;;;;;;;5.67;64.59;96957.84;8274953;28;20197;-78
2020/12/10 10:14:14;;;;;;;58.00;36.93;;;;;;;5.63;64.22;96958.88;8273614;28;20209;-78
2020/12/10 10:18:16;;;;;;;63.67;39.27;;;;;;;5.67;64.55;96951.00;8273860;28;20208;-77
2020/12/10 10:22:19;;;;;;;62.40;38.33;;;;;;;5.72;64.69;96937.13;8273336;28;20226;-78
2020/12/10 10:26:21;;;;;;;58.90;38.00;;;;;;;5.71;64.81;96943.16;8272855;28;20299;-78
2020/12/10 10:30:25;;;;;;;99.57;39.50;;;;;;;5.53;65.05;96939.59;8273883;28;20236;-78
2020/12/10 10:34:28;;;;;;;65.27;38.00;;;;;;;5.68;65.00;96918.44;8272733;28;20232;-78
2020/12/10 10:38:30;;;;;;;58.10;35.43;;;;;;;5.82;64.98;96913.53;8273722;28;20212;-78
2020/12/10 10:42:33;;;;;;;63.77;37.90;;;;;;;5.81;64.10;96908.47;8272784;28;20225;-79
2020/12/10 10:46:35;;;;;;;55.43;35.97;;;;;;;5.84;64.19;96909.16;8273106;28;20209;-78
2020/12/10 10:50:38;;;;;;;52.93;36.07;;;;;;;5.87;64.27;96911.63;8273763;28;20591;-77
2020/12/10 10:54:40;;;;;;;54.37;35.23;;;;;;;5.88;64.15;96904.72;8273240;28;20236;-77
2020/12/10 10:58:41;;;;;;;56.47;34.43;;;;;;;5.89;64.08;96901.28;8273349;28;20201;-78
2020/12/10 11:02:43;;;;;;;42.00;30.27;;;;;;;5.86;63.72;96894.53;8266511;28;20230;-78
2020/12/10 11:06:50;;;;;;;41.47;30.53;;;;;;;5.84;63.41;96887.78;8240307;28;20249;-77
2020/12/10 11:10:51;;;;;;;53.63;33.50;;;;;;;5.92;64.47;96885.75;8240026;28;20285;-78
2020/12/10 11:14:53;;;;;;;55.37;36.23;;;;;;;5.86;63.89;96879.13;8239110;28;20214;-78
2020/12/10 11:18:55;;;;;;;53.97;34.47;;;;;;;5.88;63.70;96876.47;8239625;28;20214;-78
2020/12/10 11:22:57;;;;;;;53.87;34.17;;;;;;;5.92;63.73;96878.03;8238983;28;20354;-78
2020/12/10 11:26:59;;;;;;;53.00;34.83;;;;;;;5.93;63.91;96873.72;8239596;28;20207;-78
2020/12/10 11:31:01;;;;;;;55.93;34.77;;;;;;;6.05;64.23;96884.34;8239640;28;20585;-78
2020/12/10 11:35:03;;;;;;;53.43;34.10;;;;;;;5.89;63.67;96880.72;8238714;28;20214;-78
2020/12/10 11:39:05;;;;;;;55.63;34.37;;;;;;;5.82;64.18;96881.88;8295879;28;20205;-78
2020/12/10 11:43:07;;;;;;;51.77;33.27;;;;;;;5.80;64.15;96876.78;8304000;28;20588;-78
2020/12/10 11:47:10;;;;;;;52.90;33.80;;;;;;;5.73;64.33;96882.25;8288507;28;20518;-78
2020/12/10 11:51:12;;;;;;;51.17;32.57;;;;;;;5.77;64.28;96881.22;8271207;28;20656;-77
2020/12/10 11:55:15;;;;;;;48.80;32.20;;;;;;;5.82;64.39;96889.59;8287235;28;20209;-79
2020/12/10 11:59:17;;;;;;;44.87;30.77;;;;;;;5.91;64.06;96889.19;8278105;28;20205;-78
2020/12/10 12:03:18;;;;;;;41.87;28.80;;;;;;;5.97;63.95;96890.69;8288937;28;20701;-77
2020/12/10 12:07:21;;;;;;;43.00;31.20;;;;;;;5.97;63.14;96885.56;8269946;28;20237;-77
2020/12/10 12:11:24;;;;;;;37.97;28.17;;;;;;;6.02;63.47;96876.75;8292285;28;20193;-78
2020/12/10 12:15:26;;;;;;;43.47;29.30;;;;;;;5.98;63.63;96877.78;8303062;28;20209;-77
2020/12/10 12:19:28;;;;;;;35.53;27.87;;;;;;;5.99;63.88;96873.47;8301853;28;20205;-77
2020/12/10 12:23:30;;;;;;;35.10;27.13;;;;;;;6.12;63.11;96871.22;8303044;28;20224;-78
2020/12/10 12:27:32;;;;;;;50.23;34.63;;;;;;;6.01;63.25;96880.22;8301827;28;20221;-78
2020/12/10 12:31:35;;;;;;;39.53;29.80;;;;;;;5.99;63.08;96874.31;8296570;28;20193;-80
2020/12/10 12:35:40;;;;;;;44.20;31.30;;;;;;;5.88;64.07;96879.03;8283928;28;20255;-80
2020/12/10 12:39:41;;;;;;;47.53;31.63;;;;;;;5.98;63.63;96875.22;8282851;28;20205;-80
2020/12/10 12:43:44;;;;;;;38.37;29.87;;;;;;;6.03;63.27;96883.53;8286857;28;20677;-80
2020/12/10 12:47:46;;;;;;;38.60;29.03;;;;;;;5.97;63.89;96872.72;8284996;28;20217;-80
2020/12/10 12:51:52;;;;;;;42.23;32.67;;;;;;;6.03;62.74;96875.84;8286899;28;20215;-80
2020/12/10 12:55:53;;;;;;;43.63;33.53;;;;;;;5.91;62.23;96868.63;8286576;28;20210;-80
2020/12/10 12:59:56;;;;;;;48.73;36.10;;;;;;;5.76;63.44;96872.69;8287288;28;20206;-80
2020/12/10 13:03:58;;;;;;;47.73;33.83;;;;;;;5.87;63.28;96882.53;8287411;28;20233;-80
2020/12/10 13:08:00;;;;;;;42.10;33.53;;;;;;;5.91;63.35;96881.47;8288797;28;20237;-78
2020/12/10 13:12:02;;;;;;;46.43;33.47;;;;;;;5.84;63.16;96877.50;8271695;28;20709;-79
2020/12/10 13:16:05;;;;;;;42.93;32.10;;;;;;;5.86;63.33;96865.41;8276751;28;20226;-79
2020/12/10 13:20:08;;;;;;;39.50;29.97;;;;;;;5.87;63.13;96859.41;8276042;28;20205;-78
2020/12/10 13:24:10;;;;;;;38.70;30.30;;;;;;;5.87;63.10;96875.63;8272973;28;20233;-79
2020/12/10 13:28:12;;;;;;;37.80;30.33;;;;;;;5.83;63.32;96874.09;8272120;28;20590;-79
2020/12/10 13:32:14;;;;;;;38.10;30.43;;;;;;;5.86;62.99;96871.41;8276744;28;20208;-79
2020/12/10 13:36:16;;;;;;;41.93;31.83;;;;;;;5.62;63.57;96880.16;8284343;28;20544;-79
2020/12/10 13:40:18;;;;;;;41.23;28.90;;;;;;;5.88;62.11;96881.59;8285232;28;20202;-80
2020/12/10 13:44:22;;;;;;;36.95;32.75;;;;;;;6.24;62.08;96883.50;8284159;28;20857;-79
2020/12/10 13:48:26;;;;;;;37.90;30.07;;;;;;;5.87;63.37;96885.91;8287477;28;20231;-82
2020/12/10 13:52:27;;;;;;;37.73;29.63;;;;;;;6.03;62.83;96882.72;8288072;28;20260;-82
2020/12/10 13:56:29;;;;;;;36.83;28.83;;;;;;;5.96;62.58;96884.72;8288614;28;20205;-81
2020/12/10 14:00:31;;;;;;;38.93;30.23;;;;;;;5.96;62.99;96889.00;8289424;28;20201;-82
2020/12/10 14:04:34;;;;;;;37.40;29.13;;;;;;;6.05;63.11;96891.19;8288300;28;20230;-82
2020/12/10 14:08:36;;;;;;;40.23;31.53;;;;;;;5.93;62.93;96897.66;8295944;28;20236;-81
2020/12/10 14:12:37;;;;;;;36.47;28.83;;;;;;;6.01;62.79;96887.09;8290716;28;20527;-81
2020/12/10 14:16:39;;;;;;;40.83;29.57;;;;;;;5.81;63.45;96880.22;8286699;28;20198;-82
2020/12/10 14:20:42;;;;;;;38.20;29.30;;;;;;;5.83;62.67;96896.41;8285957;28;20209;-81
2020/12/10 14:24:44;;;;;;;39.13;30.97;;;;;;;5.82;62.99;96892.97;8286629;28;20225;-81
2020/12/10 14:28:46;;;;;;;36.70;29.07;;;;;;;5.89;63.16;96896.13;8286393;28;20221;-82
2020/12/10 14:32:48;;;;;;;43.80;34.07;;;;;;;5.82;62.72;96902.44;8287047;28;20213;-82
2020/12/10 14:36:50;;;;;;;39.03;31.83;;;;;;;5.93;62.87;96901.97;8269958;28;20210;-81
2020/12/10 14:40:52;;;;;;;42.83;33.17;;;;;;;5.76;63.04;96895.81;8293255;28;20645;-81
2020/12/10 14:44:54;;;;;;;44.05;38.08;;;;;;;6.28;61.55;96892.75;8294080;28;20476;-82
2020/12/10 14:48:58;;;;;;;44.50;33.60;;;;;;;5.90;62.78;96905.50;8291097;28;20293;-81
2020/12/10 14:53:01;;;;;;;44.53;34.23;;;;;;;5.88;62.69;96909.88;8293185;28;20217;-81
2020/12/10 14:57:03;;;;;;;45.43;33.70;;;;;;;5.85;62.89;96908.28;8297465;28;20194;-81
2020/12/10 15:01:06;;;;;;;50.27;35.23;;;;;;;5.82;62.40;96905.00;8296693;28;20201;-81
2020/12/10 15:05:09;;;;;;;51.17;35.87;;;;;;;5.89;62.71;96908.97;8286210;28;20229;-81
2020/12/10 15:09:12;;;;;;;47.07;34.70;;;;;;;5.87;63.01;96905.66;8278233;28;20241;-81
2020/12/10 15:13:16;;;;;;;55.07;36.67;;;;;;;5.84;62.98;96910.91;8299232;28;20213;-81
2020/12/10 15:17:18;;;;;;;50.47;36.00;;;;;;;5.84;63.03;96904.03;8298691;28;20201;-81
2020/12/10 15:21:21;;;;;;;44.27;34.33;;;;;;;5.81;63.26;96909.31;8301553;28;20201;-81
2020/12/10 15:25:26;;;;;;;52.70;37.60;;;;;;;5.82;63.13;96905.81;8302211;28;20248;-81
2020/12/10 15:29:28;;;;;;;46.27;33.83;;;;;;;5.63;63.71;96904.94;8297777;28;20708;-81
2020/12/10 15:33:30;;;;;;;41.63;32.60;;;;;;;5.74;63.60;96913.03;8297581;28;20208;-82
2020/12/10 15:37:32;;;;;;;34.53;19.83;;;;;;;8.32;88.69;96915.63;8298771;28;20213;-81
2020/12/10 15:41:35;;;;;;;30.97;23.03;;;;;;;9.60;74.48;96906.13;8293150;28;20212;-82
2020/12/10 15:45:37;;;;;;;37.70;32.30;;;;;;;8.88;57.23;96912.72;8293541;28;20236;-81
2020/12/10 15:49:39;;;;;;;40.60;33.53;;;;;;;7.60;59.05;96914.94;8294310;28;20209;-82
2020/12/10 15:53:43;;;;;;;42.37;34.23;;;;;;;7.08;59.84;96914.84;8294959;28;20210;-81
2020/12/10 15:57:46;;;;;;;48.90;38.70;;;;;;;6.76;60.02;96913.75;8287633;28;20206;-81
2020/12/10 16:01:49;;;;;;;53.17;42.23;;;;;;;6.56;60.52;96909.53;8295479;28;20194;-82
2020/12/10 16:05:52;;;;;;;48.00;37.87;;;;;;;6.45;61.06;96916.00;8294427;28;20238;-81
2020/12/10 16:09:54;;;;;;;51.20;41.20;;;;;;;6.39;61.25;96913.69;8289922;28;20194;-80
2020/12/10 16:13:57;;;;;;;55.47;44.73;;;;;;;6.28;61.79;96918.47;8283184;28;20213;-80
2020/12/10 16:17:59;;;;;;;58.20;46.60;;;;;;;6.15;61.89;96925.03;8287112;28;20296;-79
2020/12/10 16:22:03;;;;;;;58.00;45.13;;;;;;;6.12;62.46;96922.63;8281755;28;20209;-80
2020/12/10 16:26:06;;;;;;;44.50;37.03;;;;;;;6.11;62.27;96929.50;8288488;28;20206;-80
2020/12/10 16:30:08;;;;;;;48.13;37.70;;;;;;;6.03;62.42;96919.53;8284372;28;20197;-82
2020/12/10 16:34:11;;;;;;;46.90;39.00;;;;;;;6.02;62.34;96927.31;8321907;28;20204;-80
2020/12/10 16:38:13;;;;;;;49.43;38.80;;;;;;;6.02;62.33;96925.59;8320560;28;20209;-80
2020/12/10 16:42:15;;;;;;;47.43;38.03;;;;;;;6.00;62.52;96927.38;8318482;28;20232;-80
2020/12/10 16:46:18;;;;;;;46.13;36.40;;;;;;;5.97;62.52;96935.22;8317964;28;20226;-81
2020/12/10 16:50:22;;;;;;;44.17;34.57;;;;;;;5.87;62.76;96931.34;8289500;28;20263;-79
2020/12/10 16:54:40;;;;;;;48.07;36.20;;;;;;;5.90;62.78;96938.91;8422907;27;20647;-71
2020/12/10 16:58:42;;;;;;;43.13;35.43;;;;;;;5.95;62.95;96946.44;8422227;28;20305;-70
2020/12/10 17:02:44;;;;;;;42.37;33.97;;;;;;;5.92;62.87;96943.97;8424436;28;20211;-70
2020/12/10 17:06:47;;;;;;;48.43;36.67;;;;;;;5.87;62.71;96942.44;8424654;28;20195;-72
2020/12/10 17:10:49;;;;;;;46.00;36.23;;;;;;;5.96;62.80;96954.13;8407245;28;20219;-74
2020/12/10 17:14:51;;;;;;;45.63;36.10;;;;;;;5.89;63.24;96952.66;8391585;28;20235;-73
2020/12/10 17:18:53;;;;;;;46.70;36.67;;;;;;;5.82;63.69;96953.81;8408133;28;20198;-74
2020/12/10 17:22:54;;;;;;;47.70;37.53;;;;;;;5.84;63.44;96954.59;8424921;28;20209;-72
2020/12/10 17:26:57;;;;;;;49.13;41.28;;;;;;;6.28;61.57;96957.03;8413326;28;20895;-69
2020/12/10 17:30:58;;;;;;;46.47;37.10;;;;;;;5.92;62.59;96960.25;8391554;28;20238;-70
2020/12/10 17:35:00;;;;;;;46.23;37.53;;;;;;;5.85;63.30;96958.84;8391006;28;20203;-71
2020/12/10 17:39:02;;;;;;;50.93;39.30;;;;;;;5.81;62.96;96960.69;8409284;28;20283;-70
2020/12/10 17:43:05;;;;;;;48.97;37.93;;;;;;;5.85;62.81;96969.13;8422118;28;20494;-70
2020/12/10 17:47:07;;;;;;;48.37;36.33;;;;;;;5.83;63.14;96961.47;8417661;28;20206;-72
2020/12/10 17:51:10;;;;;;;49.80;37.67;;;;;;;5.75;63.25;96960.97;8410038;28;20284;-70
2020/12/10 17:55:12;;;;;;;45.97;35.03;;;;;;;5.79;63.39;96962.50;8392948;28;20207;-70
2020/12/10 17:59:14;;;;;;;46.33;36.03;;;;;;;5.84;63.13;96964.88;8423059;28;20202;-70
2020/12/10 18:03:16;;;;;;;50.30;38.37;;;;;;;5.87;62.92;96965.56;8416987;28;20568;-70
2020/12/10 18:07:18;;;;;;;49.20;38.33;;;;;;;5.89;62.90;96962.94;8399264;28;20211;-70
2020/12/10 18:11:21;;;;;;;50.50;40.23;;;;;;;5.85;62.93;96969.94;8400809;28;20235;-70
2020/12/10 18:15:24;;;;;;;83.07;53.57;;;;;;;5.80;62.91;96976.16;8400118;28;20286;-70
2020/12/10 18:19:27;;;;;;;61.23;42.03;;;;;;;5.77;63.48;96979.72;8409042;28;20206;-70
2020/12/10 18:23:30;;;;;;;70.93;47.80;;;;;;;5.79;63.36;96979.66;8404910;28;20218;-70
2020/12/10 18:27:32;;;;;;;68.53;48.20;;;;;;;5.76;63.83;96975.47;8402003;28;20676;-70
2020/12/10 18:31:35;;;;;;;69.30;47.93;;;;;;;5.80;63.17;96977.00;8400789;28;20227;-70
2020/12/10 18:35:37;;;;;;;62.63;44.33;;;;;;;5.82;63.02;96976.94;8402204;28;20268;-70
2020/12/10 18:39:38;;;;;;;59.50;43.87;;;;;;;5.79;62.88;96979.66;8399954;28;20211;-70
2020/12/10 18:43:40;;;;;;;61.13;44.97;;;;;;;5.75;63.64;96975.50;8399853;28;20207;-72
2020/12/10 18:47:46;;;;;;;73.93;33.63;;;;;;;8.46;81.02;96984.59;8400947;28;20547;-74